createdAt,value
2022-12-08T00:01:22.696Z,29.75
2022-12-08T00:04:24.526Z,31.13
2022-12-08T00:07:45.098Z,29.55
2022-12-08T00:10:49.367Z,31.05
2022-12-08T00:13:51.384Z,32.83
2022-12-08T00:16:53.543Z,31.48
2022-12-08T00:19:55.170Z,32.10
2022-12-08T00:22:56.816Z,34.58
2022-12-08T00:26:03.238Z,33.55
2022-12-08T00:29:05.680Z,32.10
2022-12-08T00:32:07.441Z,32.95
2022-12-08T00:35:09.201Z,28.58
2022-12-08T00:38:10.793Z,29.40
2022-12-08T00:41:41.204Z,32.40
2022-12-08T00:44:44.609Z,32.08
2022-12-08T00:47:46.144Z,31.98
2022-12-08T00:50:47.759Z,31.15
2022-12-08T00:53:49.341Z,28.70
2022-12-08T00:56:51.288Z,28.52
2022-12-08T00:59:52.988Z,30.58
2022-12-08T01:02:54.588Z,28.75
2022-12-08T01:05:56.277Z,30.83
2022-12-08T01:08:57.918Z,30.65
2022-12-08T01:11:59.619Z,30.67
2022-12-08T01:15:02.764Z,29.95
2022-12-08T01:18:04.719Z,31.17
2022-12-08T01:21:07.556Z,29.40
2022-12-08T01:24:18.880Z,27.98
2022-12-08T01:27:20.446Z,32.05
2022-12-08T01:30:22.130Z,30.40
2022-12-08T01:33:23.822Z,31.00
2022-12-08T01:36:31.558Z,29.58
2022-12-08T01:39:33.131Z,28.80
2022-12-08T01:42:34.888Z,32.17
2022-12-08T01:45:36.676Z,33.92
2022-12-08T01:48:38.285Z,33.28
2022-12-08T01:51:55.580Z,33.38
2022-12-08T01:55:02.767Z,34.15
2022-12-08T01:58:22.534Z,37.08
2022-12-08T02:01:24.417Z,35.97
2022-12-08T02:04:25.990Z,36.42
2022-12-08T02:07:27.674Z,33.17
2022-12-08T02:10:31.353Z,35.70
2022-12-08T02:13:32.960Z,38.90
2022-12-08T02:16:45.694Z,35.92
2022-12-08T02:20:04.552Z,36.72
2022-12-08T02:23:24.066Z,35.13
2022-12-08T02:26:28.615Z,37.88
2022-12-08T02:30:01.233Z,38.60
2022-12-08T02:33:36.678Z,39.22
2022-12-08T02:36:53.436Z,38.55
2022-12-08T02:40:06.789Z,36.33
2022-12-08T02:43:16.512Z,37.95
2022-12-08T02:46:49.463Z,39.55
2022-12-08T02:49:50.988Z,38.67
2022-12-08T02:52:52.586Z,40.65
2022-12-08T02:56:18.567Z,39.53
2022-12-08T02:59:31.189Z,39.55
2022-12-08T03:02:55.121Z,39.13
2022-12-08T03:06:35.416Z,43.13
2022-12-08T03:09:47.692Z,39.40
2022-12-08T03:13:01.046Z,37.95
2022-12-08T03:16:07.161Z,44.65
2022-12-08T03:19:25.629Z,43.55
2022-12-08T03:22:28.831Z,43.30
2022-12-08T03:25:33.910Z,42.47
2022-12-08T03:28:35.512Z,41.83
2022-12-08T03:31:42.759Z,41.53
2022-12-08T03:34:48.167Z,42.13
2022-12-08T03:37:49.697Z,38.17
2022-12-08T03:41:09.789Z,40.22
2022-12-08T03:44:11.313Z,28.70
2022-12-08T03:47:14.274Z,38.38
2022-12-08T03:50:16.000Z,35.85
2022-12-08T03:53:17.544Z,36.75
2022-12-08T03:56:26.495Z,36.78
2022-12-08T03:59:28.053Z,38.42
2022-12-08T04:02:29.640Z,38.08
2022-12-08T04:05:31.239Z,38.33
2022-12-08T04:08:32.881Z,36.75
2022-12-08T04:11:34.418Z,36.65
2022-12-08T04:14:36.082Z,37.15
2022-12-08T04:17:37.659Z,36.00
2022-12-08T04:20:44.065Z,37.60
2022-12-08T04:23:46.528Z,36.78
2022-12-08T04:26:49.656Z,34.15
2022-12-08T04:29:51.305Z,32.33
2022-12-08T04:32:52.855Z,30.58
2022-12-08T04:35:54.455Z,31.15
2022-12-08T04:38:56.013Z,29.40
2022-12-08T04:41:57.615Z,30.88
2022-12-08T04:44:59.171Z,28.20
2022-12-08T04:48:02.025Z,28.52
2022-12-08T04:51:03.897Z,27.95
2022-12-08T04:54:05.530Z,29.08
2022-12-08T04:57:07.084Z,29.92
2022-12-08T05:00:09.361Z,30.42
2022-12-08T05:03:11.063Z,30.08
2022-12-08T05:06:14.063Z,28.80
2022-12-08T05:09:15.802Z,30.30
2022-12-08T05:12:17.408Z,29.48
2022-12-08T05:15:19.391Z,29.33
2022-12-08T05:18:20.974Z,27.95
2022-12-08T05:21:22.524Z,28.38
2022-12-08T05:24:24.210Z,29.05
2022-12-08T05:27:25.870Z,27.80
2022-12-08T05:30:27.565Z,27.98
2022-12-08T05:33:29.131Z,27.77
2022-12-08T05:36:31.210Z,28.92
2022-12-08T05:39:32.778Z,27.40
2022-12-08T05:42:34.379Z,28.17
2022-12-08T05:45:35.963Z,26.45
2022-12-08T05:48:37.665Z,27.45
2022-12-08T05:51:39.251Z,27.15
2022-12-08T05:54:40.793Z,25.80
2022-12-08T05:57:42.347Z,27.98
2022-12-08T06:00:44.620Z,25.48
2022-12-08T06:03:46.204Z,29.23
2022-12-08T06:06:48.078Z,26.95
2022-12-08T06:09:49.725Z,26.65
2022-12-08T06:12:51.329Z,24.38
2022-12-08T06:15:52.877Z,25.08
2022-12-08T06:18:55.199Z,27.17
2022-12-08T06:21:56.777Z,26.35
2022-12-08T06:24:58.364Z,26.67
2022-12-08T06:27:59.930Z,28.23
2022-12-08T06:31:11.021Z,26.95
2022-12-08T06:34:12.604Z,25.85
2022-12-08T06:37:14.182Z,25.98
2022-12-08T06:40:15.936Z,28.80
2022-12-08T06:43:18.615Z,26.92
2022-12-08T06:46:20.749Z,28.23
2022-12-08T06:49:22.408Z,29.08
2022-12-08T06:52:23.964Z,28.38
2022-12-08T06:55:51.243Z,29.63
2022-12-08T06:58:52.102Z,28.05
2022-12-08T07:01:54.487Z,26.88
2022-12-08T07:04:56.115Z,25.55
2022-12-08T07:07:57.670Z,25.88
2022-12-08T07:11:00.157Z,25.40
2022-12-08T07:15:12.472Z,25.38
2022-12-08T07:18:10.780Z,27.10
2022-12-08T07:21:15.136Z,27.83
2022-12-08T07:24:16.699Z,27.27
2022-12-08T07:27:18.334Z,27.95
2022-12-08T07:30:20.358Z,32.22
2022-12-08T07:33:21.899Z,27.83
2022-12-08T07:36:24.353Z,25.67
2022-12-08T07:39:25.985Z,27.02
2022-12-08T07:42:27.577Z,23.00
2022-12-08T07:45:31.725Z,23.88
2022-12-08T07:48:33.716Z,25.13
2022-12-08T07:51:35.302Z,25.40
2022-12-08T07:54:36.891Z,22.55
2022-12-08T07:57:38.458Z,21.95
2022-12-08T08:00:40.182Z,20.63
2022-12-08T08:03:41.791Z,21.10
2022-12-08T08:06:43.492Z,20.25
2022-12-08T08:09:45.680Z,19.77
2022-12-08T08:12:47.682Z,18.08
2022-12-08T08:15:49.325Z,17.30
2022-12-08T08:18:51.573Z,17.42
2022-12-08T08:21:53.167Z,17.80
2022-12-08T08:24:54.739Z,19.08
2022-12-08T08:27:56.491Z,20.42
2022-12-08T08:30:59.755Z,20.88
2022-12-08T08:34:06.173Z,20.83
2022-12-08T08:37:08.494Z,20.92
2022-12-08T08:40:10.580Z,20.65
2022-12-08T08:43:34.363Z,18.55
2022-12-08T08:46:39.591Z,19.08
2022-12-08T08:49:41.630Z,21.42
2022-12-08T08:52:43.416Z,20.50
2022-12-08T08:55:45.081Z,21.65
2022-12-08T08:58:51.232Z,20.40
2022-12-08T09:01:53.781Z,18.77
2022-12-08T09:04:55.504Z,20.25
2022-12-08T09:07:57.354Z,19.55
2022-12-08T09:11:01.740Z,21.95
2022-12-08T09:14:03.934Z,20.83
2022-12-08T09:17:06.670Z,21.95
2022-12-08T09:20:08.722Z,23.25
2022-12-08T09:23:10.279Z,24.50
2022-12-08T09:26:12.348Z,25.88
2022-12-08T09:29:14.593Z,27.65
2022-12-08T09:32:16.147Z,28.17
2022-12-08T09:35:17.757Z,30.23
2022-12-08T09:38:19.463Z,29.90
2022-12-08T09:41:37.600Z,30.50
2022-12-08T09:44:55.695Z,29.35
2022-12-08T09:48:07.101Z,30.80
2022-12-08T09:51:10.164Z,31.38
2022-12-08T09:54:36.038Z,30.48
2022-12-08T09:57:37.625Z,31.70
2022-12-08T10:00:39.673Z,31.70
2022-12-08T10:03:42.338Z,35.35
2022-12-08T10:07:27.735Z,33.30
2022-12-08T10:10:39.625Z,31.90
2022-12-08T10:13:55.160Z,31.63
2022-12-08T10:17:05.758Z,34.67
2022-12-08T10:20:19.412Z,32.88
2022-12-08T10:23:37.220Z,30.27
2022-12-08T10:26:39.570Z,29.52
2022-12-08T10:29:41.207Z,31.10
2022-12-08T10:32:46.818Z,26.75
2022-12-08T10:35:53.131Z,27.02
2022-12-08T10:38:54.740Z,25.58
2022-12-08T10:42:17.099Z,24.17
2022-12-08T10:45:41.838Z,27.75
2022-12-08T10:48:53.028Z,25.83
2022-12-08T10:51:54.602Z,26.05
2022-12-08T10:55:00.595Z,26.58
2022-12-08T10:58:02.161Z,26.83
2022-12-08T11:01:12.195Z,29.15
2022-12-08T11:04:44.480Z,29.02
2022-12-08T11:07:49.643Z,27.60
2022-12-08T11:10:51.229Z,31.35
2022-12-08T11:13:52.767Z,29.98
2022-12-08T11:17:04.737Z,32.13
2022-12-08T11:20:09.804Z,33.03
2022-12-08T11:23:24.666Z,29.70
2022-12-08T11:26:35.450Z,34.25
2022-12-08T11:32:42.429Z,34.95
2022-12-08T11:35:47.322Z,33.92
2022-12-08T11:38:52.059Z,36.42
2022-12-08T11:41:56.501Z,35.75
2022-12-08T11:44:59.858Z,35.95
2022-12-08T11:48:07.693Z,36.33
2022-12-08T11:51:18.226Z,36.17
2022-12-08T11:54:26.812Z,33.92
2022-12-08T11:57:29.997Z,33.75
2022-12-08T12:00:31.584Z,33.33
2022-12-08T12:03:40.546Z,32.33
2022-12-08T12:07:09.393Z,35.75
2022-12-08T12:10:26.166Z,31.83
2022-12-08T12:13:30.775Z,31.92
2022-12-08T12:16:35.600Z,31.27
2022-12-08T12:19:39.801Z,30.27
2022-12-08T12:22:43.560Z,31.17
2022-12-08T12:26:06.677Z,30.85
2022-12-08T12:29:18.804Z,33.10
2022-12-08T12:32:21.009Z,34.20
2022-12-08T12:35:31.853Z,34.33
2022-12-08T12:38:56.087Z,29.80
2022-12-08T12:42:00.450Z,27.77
2022-12-08T12:45:20.442Z,29.75
2022-12-08T12:48:25.207Z,26.00
2022-12-08T12:51:45.473Z,24.60
2022-12-08T12:54:52.853Z,26.25
2022-12-08T12:57:57.727Z,27.25
2022-12-08T13:01:11.948Z,25.23
2022-12-08T13:04:13.811Z,25.63
2022-12-08T13:07:25.012Z,25.63
2022-12-08T13:10:39.946Z,26.25
2022-12-08T13:14:03.145Z,26.00
2022-12-08T13:17:10.268Z,27.63
2022-12-08T13:20:22.446Z,26.42
2022-12-08T13:23:26.979Z,30.35
2022-12-08T13:26:28.731Z,33.35
2022-12-08T13:29:32.630Z,33.70
2022-12-08T13:36:37.434Z,33.90
2022-12-08T13:39:49.317Z,34.40
2022-12-08T13:43:43.428Z,32.53
2022-12-08T13:47:31.547Z,32.83
2022-12-08T13:51:51.159Z,32.10
2022-12-08T13:57:36.001Z,28.55
2022-12-08T14:00:37.717Z,32.10
2022-12-08T14:04:30.932Z,35.58
2022-12-08T14:10:30.284Z,24.88
2022-12-08T14:13:33.872Z,26.85
2022-12-08T14:16:43.642Z,24.88
2022-12-08T14:20:12.649Z,23.80
2022-12-08T14:23:17.411Z,23.02
2022-12-08T14:26:18.977Z,24.58
2022-12-08T14:29:37.996Z,26.42
2022-12-08T14:32:59.586Z,22.90
2022-12-08T14:36:01.220Z,21.73
2022-12-08T14:39:02.984Z,21.48
2022-12-08T14:42:06.478Z,22.90
2022-12-08T14:45:12.746Z,21.35
2022-12-08T14:48:26.707Z,22.15
2022-12-08T14:51:32.798Z,23.50
2022-12-08T14:54:34.444Z,23.25
2022-12-08T14:57:36.221Z,22.67
2022-12-08T15:00:46.447Z,24.90
2022-12-08T15:03:51.120Z,23.75
2022-12-08T15:07:04.805Z,22.85
2022-12-08T15:10:15.084Z,22.85
2022-12-08T15:13:22.599Z,26.15
2022-12-08T15:16:36.255Z,24.02
2022-12-08T15:19:37.921Z,20.67
2022-12-08T15:22:40.811Z,24.60
2022-12-08T15:25:42.734Z,25.48
2022-12-08T15:28:44.263Z,26.70
2022-12-08T15:31:46.576Z,24.15
2022-12-08T15:34:49.933Z,28.65
2022-12-08T15:37:54.073Z,27.13
2022-12-08T15:40:58.593Z,26.75
2022-12-08T15:44:00.350Z,34.17
2022-12-08T15:47:02.172Z,30.73
2022-12-08T15:50:04.895Z,31.67
2022-12-08T15:53:11.484Z,34.97
2022-12-08T15:56:29.580Z,36.70
2022-12-08T15:59:33.574Z,35.95
2022-12-08T16:03:11.467Z,36.33
2022-12-08T16:06:50.767Z,36.17
2022-12-08T16:09:28.333Z,32.05
2022-12-08T16:16:19.661Z,35.28
2022-12-08T16:19:21.255Z,37.75
2022-12-08T16:26:20.205Z,30.67
2022-12-08T16:29:19.736Z,28.05
2022-12-08T16:32:22.235Z,30.52
2022-12-08T16:35:24.318Z,27.63
2022-12-08T16:38:26.010Z,25.60
2022-12-08T16:41:46.504Z,26.02
2022-12-08T16:44:48.026Z,25.33
2022-12-08T16:47:53.699Z,26.13
2022-12-08T16:50:55.459Z,23.63
2022-12-08T16:53:58.180Z,24.60
2022-12-08T16:56:59.820Z,23.17
2022-12-08T17:00:01.435Z,24.23
2022-12-08T17:03:07.842Z,23.90
2022-12-08T17:06:15.796Z,24.70
2022-12-08T17:09:17.364Z,24.90
2022-12-08T17:12:18.911Z,26.40
2022-12-08T17:15:23.403Z,23.98
2022-12-08T17:18:24.923Z,25.67
2022-12-08T17:21:26.514Z,26.83
2022-12-08T17:24:29.112Z,25.75
2022-12-08T17:27:31.318Z,30.40
2022-12-08T17:30:32.927Z,28.83
2022-12-08T17:33:34.565Z,29.42
2022-12-08T17:36:36.768Z,28.48
2022-12-08T17:39:38.840Z,30.70
2022-12-08T17:42:43.050Z,30.08
2022-12-08T17:45:48.250Z,28.65
2022-12-08T17:48:55.423Z,28.08
2022-12-08T17:52:00.339Z,28.10
2022-12-08T17:55:02.958Z,28.90
2022-12-08T17:58:05.310Z,28.52
2022-12-08T18:01:10.873Z,29.63
2022-12-08T18:04:13.641Z,30.58
2022-12-08T18:07:15.249Z,30.20
2022-12-08T18:10:17.681Z,28.38
2022-12-08T18:13:19.382Z,29.15
2022-12-08T18:16:23.223Z,28.92
2022-12-08T18:19:24.919Z,30.08
2022-12-08T18:22:26.946Z,25.98
2022-12-08T18:25:28.507Z,27.77
2022-12-08T18:28:30.056Z,28.45
2022-12-08T18:31:31.677Z,31.48
2022-12-08T18:34:34.260Z,28.15
2022-12-08T18:37:35.878Z,30.35
2022-12-08T18:40:37.522Z,29.27
2022-12-08T18:43:39.479Z,28.35
2022-12-08T18:46:41.561Z,28.77
2022-12-08T18:49:43.546Z,29.05
2022-12-08T18:52:46.213Z,29.42
2022-12-08T18:55:50.734Z,28.15
2022-12-08T18:58:52.977Z,31.20
2022-12-08T19:01:54.539Z,27.63
2022-12-08T19:04:57.859Z,27.80
2022-12-08T19:07:59.449Z,32.40
2022-12-08T19:11:01.108Z,30.15
2022-12-08T19:14:07.167Z,31.67
2022-12-08T19:17:08.823Z,31.90
2022-12-08T19:20:11.437Z,30.83
2022-12-08T19:23:13.897Z,35.40
2022-12-08T19:26:15.451Z,35.95
2022-12-08T19:29:17.092Z,29.45
2022-12-08T19:32:18.657Z,33.20
2022-12-08T19:35:20.232Z,31.30
2022-12-08T19:38:21.864Z,31.35
2022-12-08T19:41:43.696Z,30.98
2022-12-08T19:44:54.614Z,32.05
2022-12-08T19:47:56.363Z,33.50
2022-12-08T19:50:58.488Z,31.95
2022-12-08T19:54:00.092Z,28.92
2022-12-08T19:57:01.948Z,33.08
2022-12-08T20:00:06.833Z,32.22
2022-12-08T20:03:09.026Z,30.40
2022-12-08T20:06:16.411Z,30.95
2022-12-08T20:09:18.431Z,34.55
2022-12-08T20:12:20.007Z,36.58
2022-12-08T20:15:21.704Z,33.92
2022-12-08T20:18:23.377Z,36.72
2022-12-08T20:21:27.323Z,39.63
2022-12-08T20:24:28.969Z,38.20
2022-12-08T20:27:30.533Z,40.63
2022-12-08T20:30:32.344Z,40.88
2022-12-08T20:33:34.068Z,35.25
2022-12-08T20:36:35.661Z,38.28
2022-12-08T20:39:38.308Z,38.47
2022-12-08T20:42:39.931Z,39.50
2022-12-08T20:45:41.493Z,38.25
2022-12-08T20:48:43.948Z,37.10
2022-12-08T20:51:46.337Z,34.42
2022-12-08T20:54:48.055Z,41.25
2022-12-08T21:01:12.568Z,40.55
2022-12-08T21:04:14.772Z,35.05
2022-12-08T21:07:16.677Z,32.05
2022-12-08T21:10:18.575Z,37.80
2022-12-08T21:13:20.303Z,40.08
2022-12-08T21:16:22.246Z,38.78
2022-12-08T21:19:24.938Z,37.63
2022-12-08T21:22:26.698Z,42.22
2022-12-08T21:25:28.510Z,41.00
2022-12-08T21:28:30.111Z,43.45
2022-12-08T21:31:31.966Z,38.28
2022-12-08T21:34:34.362Z,34.58
2022-12-08T21:37:36.130Z,39.15
2022-12-08T21:40:37.787Z,34.25
2022-12-08T21:43:39.772Z,40.53
2022-12-08T21:46:42.346Z,43.08
2022-12-08T21:49:44.133Z,40.58
2022-12-08T21:52:47.951Z,34.65
2022-12-08T21:55:49.959Z,36.58
2022-12-08T21:58:51.661Z,36.05
2022-12-08T22:01:53.402Z,35.85
2022-12-08T22:04:55.476Z,37.13
2022-12-08T22:07:58.469Z,36.75
2022-12-08T22:11:00.212Z,38.53
2022-12-08T22:14:01.980Z,36.50
2022-12-08T22:17:03.853Z,38.70
2022-12-08T22:20:08.625Z,37.47
2022-12-08T22:23:10.643Z,35.55
2022-12-08T22:26:13.276Z,39.15
2022-12-08T22:29:15.625Z,33.97
2022-12-08T22:32:17.453Z,36.15
2022-12-08T22:35:19.287Z,37.28
2022-12-08T22:38:21.013Z,34.33
2022-12-08T22:41:22.948Z,31.83
2022-12-08T22:44:24.676Z,30.48
2022-12-08T22:47:26.709Z,31.58
2022-12-08T22:50:29.531Z,28.15
2022-12-08T22:53:31.402Z,27.88
2022-12-08T22:56:32.976Z,31.00
2022-12-08T22:59:34.665Z,29.23
2022-12-08T23:02:37.544Z,30.55
2022-12-08T23:05:40.434Z,32.30
2022-12-08T23:08:42.311Z,31.92
2022-12-08T23:11:44.197Z,31.98
2022-12-08T23:14:46.064Z,32.33
2022-12-08T23:17:47.944Z,30.40
2022-12-08T23:20:49.563Z,28.48
2022-12-08T23:23:51.435Z,32.83
2022-12-08T23:26:53.143Z,29.63
2022-12-08T23:29:54.741Z,31.33
2022-12-08T23:32:56.606Z,30.67
2022-12-08T23:35:58.293Z,29.17
2022-12-08T23:38:59.932Z,32.45
2022-12-08T23:42:01.620Z,36.72
2022-12-08T23:45:04.486Z,27.27
2022-12-08T23:48:06.324Z,36.03
2022-12-08T23:51:07.919Z,35.40
2022-12-08T23:54:09.808Z,33.92
2022-12-08T23:57:11.412Z,31.38
